• Join FlightAware (Why Join?)
  • Login
  • US Flag 
07:42AM EDT


 

Airport Tracker/Info


-or-


 

Live Flight TrackerFlight Track Log ✈ UAL527 ✈ 15-Jun-2013 ✈ KDFW - KORD

Flight Track Log - Related Links

Times and Time Zones

All times are in EDT time to prevent confusion due to time zone crossing. See the UAL527 flight status page for this flight to view local times or setup timezone preferences in your user account.

Time Position Orientation Groundspeed Altitude Reporting Facility
EDT Latitude Longitude Course Direction KTS MPH feet Rate Location/Type
05:52PM 32.9000 -97.0167 57° Northeast 141 162 1,000  Level Dallas / Fort Worth TRACON
05:53PM 32.8667 -97.0167 180° South 149 171 2,700 2,100 Climbing Dallas / Fort Worth TRACON
05:53PM 32.8167 -97.0000 164° South 217 250 4,600 2,340 Climbing Dallas / Fort Worth TRACON
05:54PM 32.7667 -96.9833 164° South 277 319 7,000 3,180 Climbing Dallas / Fort Worth TRACON
05:55PM 32.8132 -96.7423 53° Northeast  Level FlightAware Approximate
05:55PM 32.7333 -96.9000 115° Southeast 289 333 11,000  Level Dallas / Fort Worth TRACON
05:56PM 32.8836 -96.6331 52° Northeast  Level FlightAware Approximate
05:57PM 32.9548 -96.5245 57° Northeast  Level FlightAware Approximate
05:58PM 32.9050 -96.8219 21° North 329 379 16,800  Level Fort Worth Center
05:59PM 32.9944 -96.7594 30° Northeast 324 373 17,000 1,020 Climbing Fort Worth Center
06:00PM 32.9836 -96.6606 97° East 283 326 18,900 2,040 Climbing Fort Worth Center
06:01PM 32.9392 -96.5594 118° Southeast 297 342 21,100 1,980 Climbing Fort Worth Center
06:02PM 32.8694 -96.4586 129° Southeast 317 365 22,900 900 Climbing Fort Worth Center
06:03PM 32.8936 -96.3422 76° East 337 388 23,000  Climbing Fort Worth Center
06:04PM 32.9719 -96.2322 50° Northeast 358 412 23,000  Level Fort Worth Center
06:05PM 33.0525 -96.1369 45° Northeast 400 460 23,000 120 Level Fort Worth Center
06:06PM 33.1308 -96.0467 44° Northeast 411 473 23,300 1,020 Climbing Fort Worth Center
06:07PM 33.2131 -95.9461 46° Northeast 416 479 25,100 1,620 Climbing Fort Worth Center
06:08PM 33.2953 -95.8378 48° Northeast 421 484 26,600 1,380 Climbing Fort Worth Center
06:09PM 33.2997 -95.6911 88° East 407 468 27,900 1,320 Climbing Fort Worth Center
06:10PM 33.3122 -95.5417 84° East 424 488 29,300 1,200 Climbing Fort Worth Center
06:11PM 33.3558 -95.3917 71° East 448 516 30,400 1,500 Climbing Fort Worth Center
06:12PM 33.4008 -95.2264 72° East 460 529 32,400 1,620 Climbing Fort Worth Center
06:13PM 33.4464 -95.0783 70° East 465 535 33,700 1,260 Climbing Fort Worth Center
06:14PM 33.4914 -94.9303 70° East 470 541 35,000 600 Climbing Fort Worth Center
06:15PM 33.5344 -94.7794 71° East 470 541 35,000 420 Level Fort Worth Center
06:16PM 33.5769 -94.6311 71° East 470 541 35,900 1,080 Climbing Fort Worth Center
06:17PM 33.6442 -94.3944 71° East 466 536 38,000 1,080 Climbing Memphis Center
06:18PM 33.6864 -94.2467 71° East 466 536 38,900 480 Climbing Memphis Center
06:19PM 33.7469 -94.1119 62° Northeast 461 531 39,000  Climbing Memphis Center
06:20PM 33.8114 -93.9772 60° Northeast 455 524 39,000  Level Memphis Center
06:21PM 33.9003 -93.8658 46° Northeast 455 524 39,000  Level Memphis Center
06:22PM 34.0167 -93.8028 24° Northeast 443 510 39,000  Level Memphis Center
06:23PM 34.1311 -93.7372 25° Northeast 443 510 39,000  Level Memphis Center
06:24PM 34.2436 -93.6739 25° Northeast 443 510 39,000  Level Memphis Center
06:25PM 34.3539 -93.6050 27° Northeast 443 510 39,000  Level Memphis Center
06:26PM 34.4619 -93.5361 28° Northeast 438 504 39,000  Level Memphis Center
06:27PM 34.5761 -93.4772 23° Northeast 432 497 39,000 -60 Level Memphis Center
06:28PM 34.6861 -93.4156 25° Northeast 432 497 38,900  Descending Memphis Center
06:29PM 34.7983 -93.3489 26° Northeast 432 497 39,000  Climbing Memphis Center
06:30PM 34.9083 -93.2869 25° Northeast 432 497 39,000  Level Memphis Center
06:31PM 35.0206 -93.2222 25° Northeast 432 497 39,000  Level Memphis Center
06:32PM 35.1386 -93.1603 23° Northeast 432 497 39,000  Level Memphis Center
06:33PM 35.2486 -93.0928 27° Northeast 437 503 39,000  Level Memphis Center
06:34PM 35.3606 -93.0303 24° Northeast 442 509 39,000 -60 Level Memphis Center
06:35PM 35.4783 -92.9806 19° North 442 509 38,900  Descending Memphis Center
06:36PM 35.5825 -92.8944 34° Northeast 442 509 39,000  Climbing Memphis Center
06:37PM 35.7047 -92.8214 26° Northeast 442 509 39,000  Level Memphis Center
06:38PM 35.8144 -92.7556 26° Northeast 442 509 39,000  Level Memphis Center
06:39PM 35.9242 -92.6897 26° Northeast 436 502 39,000  Level Memphis Center
06:40PM 36.0358 -92.6236 26° Northeast 430 495 39,000  Level Memphis Center
06:41PM 36.1497 -92.5572 25° Northeast 430 495 39,000  Level Memphis Center
06:42PM 36.2636 -92.4856 27° Northeast 430 495 39,000  Level Memphis Center
06:43PM 36.3772 -92.4189 25° Northeast 435 501 39,000  Level Memphis Center
06:44PM 36.4908 -92.3497 26° Northeast 441 507 39,000  Level Memphis Center
06:45PM 36.6044 -92.2825 25° Northeast 446 513 39,000  Level Memphis Center
06:46PM 36.6944 -92.2186 30° Northeast 458 527 39,000  Level Kansas City Center
06:47PM 36.8092 -92.1506 25° Northeast 457 526 39,000  Level Kansas City Center
06:48PM 36.9233 -92.0800 26° Northeast 456 525 39,000  Level Kansas City Center
06:49PM 37.0361 -92.0125 26° Northeast 453 521 39,000  Level Kansas City Center
06:50PM 37.1481 -91.9450 26° Northeast 449 517 39,000  Level Kansas City Center
06:51PM 37.2836 -91.8625 26° Northeast 451 519 39,000  Level Kansas City Center
06:52PM 37.3975 -91.7917 26° Northeast 455 524 39,000  Level Kansas City Center
06:53PM 37.5100 -91.7208 27° Northeast 454 522 39,000  Level Kansas City Center
06:54PM 37.6222 -91.6517 26° Northeast 451 519 39,000 -60 Level Kansas City Center
06:56PM 37.7342 -91.5808 27° Northeast 452 520 38,900  Descending Kansas City Center
06:57PM 37.8483 -91.5106 26° Northeast 455 524 39,000  Climbing Kansas City Center
06:58PM 37.9628 -91.4381 27° Northeast 459 528 39,000 -480 Level Kansas City Center
06:59PM 38.0775 -91.3650 27° Northeast 461 531 38,100 -960 Descending Kansas City Center
07:00PM 38.2042 -91.2850 26° Northeast 467 537 37,100 -540 Descending Kansas City Center
07:01PM 38.3194 -91.2103 27° Northeast 466 536 37,000 -60 Descending Kansas City Center
07:02PM 38.4325 -91.1211 32° Northeast 475 547 37,000  Level Kansas City Center
07:03PM 38.5458 -91.0344 31° Northeast 474 545 37,000  Level Kansas City Center
07:04PM 38.6622 -90.9514 29° Northeast 475 547 37,000 -540 Level Kansas City Center
07:05PM 38.7778 -90.8678 29° Northeast 475 547 36,000 -1,020 Descending Kansas City Center
07:06PM 38.8936 -90.7858 29° Northeast 471 542 35,000 -540 Descending Kansas City Center
07:07PM 39.0086 -90.6972 31° Northeast 475 547 35,000 -780 Level Kansas City Center
07:08PM 39.1450 -90.5919 31° Northeast 474 545 33,500 -1,020 Descending Kansas City Center
07:09PM 39.2572 -90.5128 29° Northeast 462 532 33,000 -300 Descending Kansas City Center
07:10PM 39.3628 -90.4322 31° Northeast 446 513 33,000  Level Kansas City Center
07:11PM 39.4675 -90.3431 33° Northeast 447 514 33,000  Level Kansas City Center
07:12PM 39.5747 -90.2519 33° Northeast 456 525 33,000  Level Kansas City Center
07:13PM 39.6800 -90.1531 36° Northeast 464 534 33,000  Level Kansas City Center
07:14PM 39.7689 -90.0522 41° Northeast 467 537 33,000  Level Kansas City Center
07:15PM 39.8989 -89.9339 35° Northeast 476 548 33,000  Level Kansas City Center
07:16PM 40.0150 -89.8522 28° Northeast 476 548 33,000 -60 Level Kansas City Center
07:17PM 40.1303 -89.7683 29° Northeast 475 547 32,900 -600 Descending Kansas City Center
07:18PM 40.2444 -89.6833 30° Northeast 475 547 31,800 -1,380 Descending Kansas City Center
07:19PM 40.3589 -89.5978 30° Northeast 476 548 30,200 -1,500 Descending Kansas City Center
07:20PM 40.4711 -89.5131 30° Northeast 473 544 28,700 -1,500 Descending Kansas City Center
07:21PM 40.5811 -89.4319 29° Northeast 463 533 27,200 -1,560 Descending Kansas City Center
07:22PM 40.6875 -89.3503 30° Northeast 452 520 25,600 -1,500 Descending Kansas City Center
07:23PM 40.8114 -89.2575 30° Northeast 432 497 24,000 -1,020 Descending Chicago Center
07:24PM 40.9319 -89.1656 30° Northeast 419 482 23,400 -1,320 Descending Chicago Center
07:25PM 41.0231 -89.0944 30° Northeast 411 473 21,300 -2,160 Descending Chicago Center
07:26PM 41.1175 -89.0208 30° Northeast 399 459 19,000 -2,160 Descending Chicago Center
07:27PM 41.2083 -88.9494 31° Northeast 384 442 16,900 -2,280 Descending Chicago Center
07:28PM 41.3153 -88.8622 31° Northeast 379 436 14,300 -2,640 Descending Chicago Center
07:29PM 41.4019 -88.7947 30° Northeast 364 419 11,600 -1,620 Descending Chicago Center
07:30PM 41.4908 -88.7242 31° Northeast 370 426 11,000 -300 Descending Chicago Center
07:31PM 41.5492 -88.6128 55° Northeast 383 441 11,000  Level Chicago Center
07:32PM 41.5989 -88.4872 62° Northeast 380 437 11,000  Level Chicago Center
07:33PM 41.6617 -88.3758 53° Northeast 376 433 11,000  Level Chicago Center
07:35PM 41.7253 -88.2656 52° Northeast 372 428 11,000 -360 Level Chicago Center
07:36PM 41.7808 -88.1703 52° Northeast 326 375 10,300 -1,500 Descending Chicago Center
07:37PM 41.8600 -88.1094 30° Northeast 298 343 8,000 -1,620 Descending Chicago Center
07:38PM 41.9367 -88.1094 360° North 280 322 7,000 -540 Descending Chicago Center
07:39PM 42.0119 -88.1111 359° North 273 314 6,900 -720 Descending Chicago Center
07:40PM 42.0728 -88.1333 345° North 236 272 5,600 -1,260 Descending Chicago Center